Lena, Mississippi
Current Conditions -  °F | °C
As of 2:54 PM on Sunday 23 Nov 2014 (Local Time) from KJAN Reporting Station
Broken Clouds Broken Clouds  
Wind Chill: 68°   Ceiling: 3100
Heat Index: 68°   Visibility: 10mi
Dew Point: 58°   Wind: 13mph
Humidity: 70%   Direction: 200°SSW
Pressure: 29.51"   Gusts: 22mph
Location:  32.59°N, 89.61°W
Report Text: KJAN 232054Z 20011G19KT 10SM BKN031 BKN042 BKN050 20/14 A2951 RMK AO2 PK WND 18027/2004 SLP989 T02000144 55007
Loading
Personal Weather Stations






























Interactive Weather Map New forecast layout! Learn more

10-Day Weather Forecast

Advertisements
Track Severe Weather on mobile